sensor_id;sensor_type;location;lat;lon;timestamp;P1;durP1;ratioP1;P2;durP2;ratioP2
3755;SDS011;1893;52.526;13.360;2024-02-21T00:02:09;18.77;;;6.60;;
3755;SDS011;1893;52.526;13.360;2024-02-21T00:04:34;22.97;;;7.53;;
3755;SDS011;1893;52.526;13.360;2024-02-21T00:07:01;20.33;;;6.97;;
3755;SDS011;1893;52.526;13.360;2024-02-21T00:09:27;21.13;;;6.60;;
3755;SDS011;1893;52.526;13.360;2024-02-21T00:11:53;21.30;;;6.80;;
3755;SDS011;1893;52.526;13.360;2024-02-21T00:14:18;14.77;;;6.70;;
3755;SDS011;1893;52.526;13.360;2024-02-21T00:16:44;12.10;;;6.50;;
3755;SDS011;1893;52.526;13.360;2024-02-21T00:19:09;19.77;;;7.13;;
3755;SDS011;1893;52.526;13.360;2024-02-21T00:21:35;20.70;;;7.13;;
3755;SDS011;1893;52.526;13.360;2024-02-21T00:24:01;20.63;;;6.33;;
3755;SDS011;1893;52.526;13.360;2024-02-21T00:26:26;15.97;;;7.27;;
3755;SDS011;1893;52.526;13.360;2024-02-21T00:28:52;12.03;;;6.10;;
3755;SDS011;1893;52.526;13.360;2024-02-21T00:31:18;17.20;;;6.77;;
3755;SDS011;1893;52.526;13.360;2024-02-21T00:33:44;19.63;;;7.23;;
3755;SDS011;1893;52.526;13.360;2024-02-21T00:36:09;14.63;;;6.90;;
3755;SDS011;1893;52.526;13.360;2024-02-21T00:38:35;19.23;;;6.17;;
3755;SDS011;1893;52.526;13.360;2024-02-21T00:41:01;14.83;;;5.50;;
3755;SDS011;1893;52.526;13.360;2024-02-21T00:43:26;20.47;;;6.53;;
3755;SDS011;1893;52.526;13.360;2024-02-21T00:45:52;9.93;;;5.60;;
3755;SDS011;1893;52.526;13.360;2024-02-21T00:48:18;19.23;;;7.90;;
3755;SDS011;1893;52.526;13.360;2024-02-21T00:50:43;18.07;;;6.37;;
3755;SDS011;1893;52.526;13.360;2024-02-21T00:53:09;21.97;;;6.13;;
3755;SDS011;1893;52.526;13.360;2024-02-21T00:55:35;20.07;;;6.13;;
3755;SDS011;1893;52.526;13.360;2024-02-21T00:58:01;14.23;;;7.00;;
3755;SDS011;1893;52.526;13.360;2024-02-21T01:00:26;19.60;;;5.70;;
3755;SDS011;1893;52.526;13.360;2024-02-21T01:02:52;16.90;;;6.10;;
3755;SDS011;1893;52.526;13.360;2024-02-21T01:05:17;14.43;;;6.00;;
3755;SDS011;1893;52.526;13.360;2024-02-21T01:07:44;24.27;;;6.50;;
3755;SDS011;1893;52.526;13.360;2024-02-21T01:10:09;14.23;;;6.00;;
3755;SDS011;1893;52.526;13.360;2024-02-21T01:12:35;14.73;;;6.07;;
3755;SDS011;1893;52.526;13.360;2024-02-21T01:15:02;15.03;;;4.80;;
3755;SDS011;1893;52.526;13.360;2024-02-21T01:17:28;17.40;;;6.70;;
3755;SDS011;1893;52.526;13.360;2024-02-21T01:19:54;17.10;;;5.80;;
3755;SDS011;1893;52.526;13.360;2024-02-21T01:22:19;14.87;;;4.83;;
3755;SDS011;1893;52.526;13.360;2024-02-21T01:24:45;24.60;;;6.93;;
3755;SDS011;1893;52.526;13.360;2024-02-21T01:27:10;14.23;;;5.87;;
3755;SDS011;1893;52.526;13.360;2024-02-21T01:29:36;14.40;;;5.97;;
3755;SDS011;1893;52.526;13.360;2024-02-21T01:32:02;13.60;;;5.40;;
3755;SDS011;1893;52.526;13.360;2024-02-21T01:34:28;13.77;;;6.20;;
3755;SDS011;1893;52.526;13.360;2024-02-21T01:36:53;19.17;;;5.13;;
3755;SDS011;1893;52.526;13.360;2024-02-21T01:39:19;15.17;;;5.80;;
3755;SDS011;1893;52.526;13.360;2024-02-21T01:41:44;12.37;;;5.30;;
3755;SDS011;1893;52.526;13.360;2024-02-21T01:44:10;14.97;;;5.57;;
3755;SDS011;1893;52.526;13.360;2024-02-21T01:46:35;18.07;;;5.23;;
3755;SDS011;1893;52.526;13.360;2024-02-21T01:49:02;9.57;;;4.80;;
3755;SDS011;1893;52.526;13.360;2024-02-21T01:51:27;16.90;;;6.20;;
3755;SDS011;1893;52.526;13.360;2024-02-21T01:53:53;12.60;;;5.30;;
3755;SDS011;1893;52.526;13.360;2024-02-21T01:56:22;13.83;;;5.03;;
3755;SDS011;1893;52.526;13.360;2024-02-21T01:58:48;16.97;;;5.57;;
3755;SDS011;1893;52.526;13.360;2024-02-21T02:01:14;14.67;;;5.77;;
3755;SDS011;1893;52.526;13.360;2024-02-21T02:03:39;21.40;;;5.17;;
3755;SDS011;1893;52.526;13.360;2024-02-21T02:06:06;18.43;;;5.30;;
3755;SDS011;1893;52.526;13.360;2024-02-21T02:08:34;17.93;;;4.97;;
3755;SDS011;1893;52.526;13.360;2024-02-21T02:11:00;13.30;;;5.27;;
3755;SDS011;1893;52.526;13.360;2024-02-21T02:13:26;15.50;;;5.20;;
3755;SDS011;1893;52.526;13.360;2024-02-21T02:15:52;21.23;;;6.50;;
3755;SDS011;1893;52.526;13.360;2024-02-21T02:18:19;17.50;;;5.43;;
3755;SDS011;1893;52.526;13.360;2024-02-21T02:20:45;10.50;;;5.33;;
3755;SDS011;1893;52.526;13.360;2024-02-21T02:23:22;22.00;;;6.63;;
3755;SDS011;1893;52.526;13.360;2024-02-21T02:25:51;11.63;;;5.37;;
3755;SDS011;1893;52.526;13.360;2024-02-21T02:28:20;19.73;;;5.73;;
3755;SDS011;1893;52.526;13.360;2024-02-21T02:30:46;15.43;;;5.40;;
3755;SDS011;1893;52.526;13.360;2024-02-21T02:33:12;20.33;;;5.63;;
3755;SDS011;1893;52.526;13.360;2024-02-21T02:35:38;21.50;;;5.80;;
3755;SDS011;1893;52.526;13.360;2024-02-21T02:38:04;16.27;;;5.00;;
3755;SDS011;1893;52.526;13.360;2024-02-21T02:40:31;13.73;;;5.93;;
3755;SDS011;1893;52.526;13.360;2024-02-21T02:43:01;15.47;;;5.97;;
3755;SDS011;1893;52.526;13.360;2024-02-21T02:45:26;11.90;;;6.00;;
3755;SDS011;1893;52.526;13.360;2024-02-21T02:47:52;17.30;;;5.40;;
3755;SDS011;1893;52.526;13.360;2024-02-21T02:50:22;20.73;;;5.70;;
3755;SDS011;1893;52.526;13.360;2024-02-21T02:52:48;15.90;;;5.30;;
3755;SDS011;1893;52.526;13.360;2024-02-21T02:55:14;16.47;;;6.17;;
3755;SDS011;1893;52.526;13.360;2024-02-21T02:57:40;10.50;;;5.00;;
3755;SDS011;1893;52.526;13.360;2024-02-21T03:00:09;17.00;;;6.30;;
3755;SDS011;1893;52.526;13.360;2024-02-21T03:02:37;20.87;;;6.37;;
3755;SDS011;1893;52.526;13.360;2024-02-21T03:05:11;14.60;;;5.83;;
3755;SDS011;1893;52.526;13.360;2024-02-21T03:07:40;25.90;;;6.67;;
3755;SDS011;1893;52.526;13.360;2024-02-21T03:10:06;19.23;;;6.67;;
3755;SDS011;1893;52.526;13.360;2024-02-21T03:12:31;15.23;;;7.33;;
3755;SDS011;1893;52.526;13.360;2024-02-21T03:14:57;19.27;;;7.03;;
3755;SDS011;1893;52.526;13.360;2024-02-21T03:17:23;18.67;;;6.40;;
3755;SDS011;1893;52.526;13.360;2024-02-21T03:19:50;16.93;;;7.60;;
3755;SDS011;1893;52.526;13.360;2024-02-21T03:25:15;16.77;;;6.80;;
3755;SDS011;1893;52.526;13.360;2024-02-21T03:27:40;16.23;;;7.50;;
3755;SDS011;1893;52.526;13.360;2024-02-21T03:30:06;19.87;;;7.17;;
3755;SDS011;1893;52.526;13.360;2024-02-21T03:32:32;18.00;;;7.60;;
3755;SDS011;1893;52.526;13.360;2024-02-21T03:34:58;15.27;;;6.93;;
3755;SDS011;1893;52.526;13.360;2024-02-21T03:37:24;19.13;;;7.30;;
3755;SDS011;1893;52.526;13.360;2024-02-21T03:39:49;19.77;;;6.90;;
3755;SDS011;1893;52.526;13.360;2024-02-21T03:42:15;19.27;;;7.57;;
3755;SDS011;1893;52.526;13.360;2024-02-21T03:44:40;14.50;;;7.30;;
3755;SDS011;1893;52.526;13.360;2024-02-21T03:47:06;17.30;;;6.97;;
3755;SDS011;1893;52.526;13.360;2024-02-21T03:49:35;19.73;;;8.70;;
3755;SDS011;1893;52.526;13.360;2024-02-21T03:52:01;14.23;;;6.90;;
3755;SDS011;1893;52.526;13.360;2024-02-21T03:54:26;22.70;;;8.70;;
3755;SDS011;1893;52.526;13.360;2024-02-21T03:56:52;20.13;;;9.30;;
3755;SDS011;1893;52.526;13.360;2024-02-21T03:59:18;20.37;;;9.23;;
3755;SDS011;1893;52.526;13.360;2024-02-21T04:01:44;16.50;;;7.47;;
3755;SDS011;1893;52.526;13.360;2024-02-21T04:04:10;25.00;;;8.90;;
3755;SDS011;1893;52.526;13.360;2024-02-21T04:06:35;19.63;;;7.87;;
3755;SDS011;1893;52.526;13.360;2024-02-21T04:09:01;28.63;;;7.73;;
3755;SDS011;1893;52.526;13.360;2024-02-21T04:11:27;22.63;;;9.97;;
3755;SDS011;1893;52.526;13.360;2024-02-21T04:13:53;16.50;;;8.97;;
3755;SDS011;1893;52.526;13.360;2024-02-21T04:16:18;18.63;;;7.60;;
3755;SDS011;1893;52.526;13.360;2024-02-21T04:18:44;17.20;;;8.70;;
3755;SDS011;1893;52.526;13.360;2024-02-21T04:21:10;22.10;;;9.07;;
3755;SDS011;1893;52.526;13.360;2024-02-21T04:23:43;22.53;;;8.63;;
3755;SDS011;1893;52.526;13.360;2024-02-21T04:26:08;19.20;;;9.03;;
3755;SDS011;1893;52.526;13.360;2024-02-21T04:28:34;24.73;;;9.00;;
3755;SDS011;1893;52.526;13.360;2024-02-21T04:30:59;21.23;;;8.47;;
3755;SDS011;1893;52.526;13.360;2024-02-21T04:33:25;19.83;;;8.27;;
3755;SDS011;1893;52.526;13.360;2024-02-21T04:35:51;23.00;;;9.87;;
3755;SDS011;1893;52.526;13.360;2024-02-21T04:38:19;22.03;;;8.20;;
3755;SDS011;1893;52.526;13.360;2024-02-21T04:40:45;20.53;;;7.80;;
3755;SDS011;1893;52.526;13.360;2024-02-21T04:43:10;19.47;;;8.37;;
3755;SDS011;1893;52.526;13.360;2024-02-21T04:45:36;25.23;;;8.03;;
3755;SDS011;1893;52.526;13.360;2024-02-21T04:48:02;19.70;;;8.60;;
3755;SDS011;1893;52.526;13.360;2024-02-21T04:50:28;21.53;;;8.80;;
3755;SDS011;1893;52.526;13.360;2024-02-21T04:52:53;16.93;;;7.30;;
3755;SDS011;1893;52.526;13.360;2024-02-21T04:55:19;26.73;;;9.70;;
3755;SDS011;1893;52.526;13.360;2024-02-21T04:57:44;19.17;;;8.40;;
3755;SDS011;1893;52.526;13.360;2024-02-21T05:00:10;14.50;;;8.37;;
3755;SDS011;1893;52.526;13.360;2024-02-21T05:02:36;19.87;;;8.03;;
3755;SDS011;1893;52.526;13.360;2024-02-21T05:05:01;21.53;;;9.60;;
3755;SDS011;1893;52.526;13.360;2024-02-21T05:07:27;24.40;;;8.43;;
3755;SDS011;1893;52.526;13.360;2024-02-21T05:09:53;24.33;;;8.03;;
3755;SDS011;1893;52.526;13.360;2024-02-21T05:12:19;20.83;;;7.80;;
3755;SDS011;1893;52.526;13.360;2024-02-21T05:14:45;21.80;;;9.00;;
3755;SDS011;1893;52.526;13.360;2024-02-21T05:17:10;18.50;;;8.67;;
3755;SDS011;1893;52.526;13.360;2024-02-21T05:19:36;21.93;;;9.07;;
3755;SDS011;1893;52.526;13.360;2024-02-21T05:22:02;24.03;;;8.90;;
3755;SDS011;1893;52.526;13.360;2024-02-21T05:24:27;23.30;;;12.10;;
3755;SDS011;1893;52.526;13.360;2024-02-21T05:26:54;27.00;;;9.00;;
3755;SDS011;1893;52.526;13.360;2024-02-21T05:29:20;21.53;;;9.00;;
3755;SDS011;1893;52.526;13.360;2024-02-21T05:34:18;22.50;;;8.57;;
3755;SDS011;1893;52.526;13.360;2024-02-21T05:36:44;29.83;;;11.37;;
3755;SDS011;1893;52.526;13.360;2024-02-21T05:39:10;23.77;;;9.67;;
3755;SDS011;1893;52.526;13.360;2024-02-21T05:41:35;32.00;;;8.77;;
3755;SDS011;1893;52.526;13.360;2024-02-21T05:44:01;29.57;;;8.17;;
3755;SDS011;1893;52.526;13.360;2024-02-21T05:46:26;28.47;;;10.57;;
3755;SDS011;1893;52.526;13.360;2024-02-21T05:48:52;18.03;;;9.17;;
3755;SDS011;1893;52.526;13.360;2024-02-21T05:51:19;21.03;;;9.87;;
3755;SDS011;1893;52.526;13.360;2024-02-21T05:53:44;22.33;;;9.20;;
3755;SDS011;1893;52.526;13.360;2024-02-21T05:56:10;21.67;;;9.03;;
3755;SDS011;1893;52.526;13.360;2024-02-21T05:58:36;24.17;;;9.20;;
3755;SDS011;1893;52.526;13.360;2024-02-21T06:01:02;20.20;;;9.20;;
3755;SDS011;1893;52.526;13.360;2024-02-21T06:03:28;25.20;;;11.90;;
3755;SDS011;1893;52.526;13.360;2024-02-21T06:05:56;26.50;;;10.17;;
3755;SDS011;1893;52.526;13.360;2024-02-21T06:08:21;22.87;;;9.60;;
3755;SDS011;1893;52.526;13.360;2024-02-21T06:10:47;29.90;;;10.60;;
3755;SDS011;1893;52.526;13.360;2024-02-21T06:13:19;31.17;;;12.63;;
3755;SDS011;1893;52.526;13.360;2024-02-21T06:15:51;18.27;;;8.60;;
3755;SDS011;1893;52.526;13.360;2024-02-21T06:18:17;28.23;;;9.20;;
3755;SDS011;1893;52.526;13.360;2024-02-21T06:20:43;20.13;;;9.30;;
3755;SDS011;1893;52.526;13.360;2024-02-21T06:23:08;25.13;;;9.53;;
3755;SDS011;1893;52.526;13.360;2024-02-21T06:25:34;23.63;;;9.67;;
3755;SDS011;1893;52.526;13.360;2024-02-21T06:28:00;21.57;;;9.87;;
3755;SDS011;1893;52.526;13.360;2024-02-21T06:30:26;28.97;;;10.87;;
3755;SDS011;1893;52.526;13.360;2024-02-21T06:32:52;29.67;;;9.70;;
3755;SDS011;1893;52.526;13.360;2024-02-21T06:35:19;22.30;;;11.10;;
3755;SDS011;1893;52.526;13.360;2024-02-21T06:37:44;21.13;;;9.23;;
3755;SDS011;1893;52.526;13.360;2024-02-21T06:40:15;22.10;;;10.80;;
3755;SDS011;1893;52.526;13.360;2024-02-21T06:42:41;25.33;;;9.60;;
3755;SDS011;1893;52.526;13.360;2024-02-21T06:45:07;23.03;;;9.87;;
3755;SDS011;1893;52.526;13.360;2024-02-21T06:47:33;18.50;;;10.83;;
3755;SDS011;1893;52.526;13.360;2024-02-21T06:49:58;26.77;;;10.67;;
3755;SDS011;1893;52.526;13.360;2024-02-21T06:52:24;21.63;;;10.50;;
3755;SDS011;1893;52.526;13.360;2024-02-21T06:54:50;17.80;;;9.37;;
3755;SDS011;1893;52.526;13.360;2024-02-21T06:57:16;26.60;;;10.40;;
3755;SDS011;1893;52.526;13.360;2024-02-21T06:59:41;28.03;;;11.00;;
3755;SDS011;1893;52.526;13.360;2024-02-21T07:02:07;26.53;;;10.10;;
3755;SDS011;1893;52.526;13.360;2024-02-21T07:04:33;25.00;;;9.93;;
3755;SDS011;1893;52.526;13.360;2024-02-21T07:06:59;18.50;;;9.60;;
3755;SDS011;1893;52.526;13.360;2024-02-21T07:09:24;16.27;;;9.27;;
3755;SDS011;1893;52.526;13.360;2024-02-21T07:11:50;18.97;;;9.90;;
3755;SDS011;1893;52.526;13.360;2024-02-21T07:14:16;23.03;;;10.80;;
3755;SDS011;1893;52.526;13.360;2024-02-21T07:16:43;18.00;;;9.00;;
3755;SDS011;1893;52.526;13.360;2024-02-21T07:19:08;17.83;;;10.07;;
3755;SDS011;1893;52.526;13.360;2024-02-21T07:21:34;28.27;;;9.17;;
3755;SDS011;1893;52.526;13.360;2024-02-21T07:24:02;16.63;;;9.30;;
3755;SDS011;1893;52.526;13.360;2024-02-21T07:26:29;25.13;;;10.97;;
3755;SDS011;1893;52.526;13.360;2024-02-21T07:28:54;25.63;;;9.50;;
3755;SDS011;1893;52.526;13.360;2024-02-21T07:31:20;17.70;;;8.70;;
3755;SDS011;1893;52.526;13.360;2024-02-21T07:33:46;19.17;;;9.47;;
3755;SDS011;1893;52.526;13.360;2024-02-21T07:36:11;17.80;;;9.90;;
3755;SDS011;1893;52.526;13.360;2024-02-21T07:38:37;18.17;;;9.60;;
3755;SDS011;1893;52.526;13.360;2024-02-21T07:41:02;26.23;;;10.23;;
3755;SDS011;1893;52.526;13.360;2024-02-21T07:43:29;17.83;;;9.47;;
3755;SDS011;1893;52.526;13.360;2024-02-21T07:45:55;22.53;;;9.63;;
3755;SDS011;1893;52.526;13.360;2024-02-21T07:48:21;20.57;;;8.37;;
3755;SDS011;1893;52.526;13.360;2024-02-21T07:50:50;15.60;;;9.33;;
3755;SDS011;1893;52.526;13.360;2024-02-21T07:53:16;22.33;;;9.30;;
3755;SDS011;1893;52.526;13.360;2024-02-21T07:55:41;14.97;;;8.60;;
3755;SDS011;1893;52.526;13.360;2024-02-21T07:58:07;12.77;;;7.77;;
3755;SDS011;1893;52.526;13.360;2024-02-21T08:00:33;18.30;;;8.73;;
3755;SDS011;1893;52.526;13.360;2024-02-21T08:02:58;11.03;;;7.53;;
3755;SDS011;1893;52.526;13.360;2024-02-21T08:05:24;15.20;;;8.10;;
3755;SDS011;1893;52.526;13.360;2024-02-21T08:07:50;16.60;;;7.73;;
3755;SDS011;1893;52.526;13.360;2024-02-21T08:10:15;16.43;;;7.93;;
3755;SDS011;1893;52.526;13.360;2024-02-21T08:12:41;22.57;;;8.43;;
3755;SDS011;1893;52.526;13.360;2024-02-21T08:15:07;22.57;;;8.07;;
3755;SDS011;1893;52.526;13.360;2024-02-21T08:17:37;22.50;;;7.70;;
3755;SDS011;1893;52.526;13.360;2024-02-21T08:20:03;21.77;;;9.20;;
3755;SDS011;1893;52.526;13.360;2024-02-21T08:22:29;15.37;;;7.70;;
3755;SDS011;1893;52.526;13.360;2024-02-21T08:24:55;14.13;;;7.00;;
3755;SDS011;1893;52.526;13.360;2024-02-21T08:27:21;13.43;;;7.50;;
3755;SDS011;1893;52.526;13.360;2024-02-21T08:29:46;17.43;;;7.50;;
3755;SDS011;1893;52.526;13.360;2024-02-21T08:32:12;21.67;;;8.30;;
3755;SDS011;1893;52.526;13.360;2024-02-21T08:34:38;18.70;;;8.70;;
3755;SDS011;1893;52.526;13.360;2024-02-21T08:37:03;26.37;;;9.03;;
3755;SDS011;1893;52.526;13.360;2024-02-21T08:39:29;18.03;;;8.40;;
3755;SDS011;1893;52.526;13.360;2024-02-21T08:41:55;16.20;;;9.43;;
3755;SDS011;1893;52.526;13.360;2024-02-21T08:44:22;14.57;;;8.07;;
3755;SDS011;1893;52.526;13.360;2024-02-21T08:46:52;20.80;;;9.63;;
3755;SDS011;1893;52.526;13.360;2024-02-21T08:49:18;23.43;;;9.20;;
3755;SDS011;1893;52.526;13.360;2024-02-21T08:51:44;20.80;;;9.23;;
3755;SDS011;1893;52.526;13.360;2024-02-21T08:54:11;17.90;;;8.20;;
3755;SDS011;1893;52.526;13.360;2024-02-21T08:56:37;18.63;;;9.17;;
3755;SDS011;1893;52.526;13.360;2024-02-21T08:59:02;23.53;;;9.73;;
3755;SDS011;1893;52.526;13.360;2024-02-21T09:01:28;23.23;;;8.97;;
3755;SDS011;1893;52.526;13.360;2024-02-21T09:03:54;17.67;;;9.90;;
3755;SDS011;1893;52.526;13.360;2024-02-21T09:06:21;16.57;;;8.80;;
3755;SDS011;1893;52.526;13.360;2024-02-21T09:08:47;17.37;;;8.40;;
3755;SDS011;1893;52.526;13.360;2024-02-21T09:11:13;24.73;;;10.20;;
3755;SDS011;1893;52.526;13.360;2024-02-21T09:13:39;24.07;;;9.33;;
3755;SDS011;1893;52.526;13.360;2024-02-21T09:16:04;26.57;;;10.23;;
3755;SDS011;1893;52.526;13.360;2024-02-21T09:18:31;18.17;;;9.33;;
3755;SDS011;1893;52.526;13.360;2024-02-21T09:20:56;19.20;;;8.43;;
3755;SDS011;1893;52.526;13.360;2024-02-21T09:23:25;21.60;;;10.87;;
3755;SDS011;1893;52.526;13.360;2024-02-21T09:25:50;24.57;;;9.30;;
3755;SDS011;1893;52.526;13.360;2024-02-21T09:28:16;16.37;;;9.10;;
3755;SDS011;1893;52.526;13.360;2024-02-21T09:30:42;20.77;;;10.40;;
3755;SDS011;1893;52.526;13.360;2024-02-21T09:33:07;15.93;;;8.83;;
3755;SDS011;1893;52.526;13.360;2024-02-21T09:35:33;16.30;;;9.00;;
3755;SDS011;1893;52.526;13.360;2024-02-21T09:37:59;23.00;;;11.07;;
3755;SDS011;1893;52.526;13.360;2024-02-21T09:40:25;23.70;;;9.07;;
3755;SDS011;1893;52.526;13.360;2024-02-21T09:42:54;18.13;;;9.67;;
3755;SDS011;1893;52.526;13.360;2024-02-21T09:45:31;15.70;;;9.07;;
3755;SDS011;1893;52.526;13.360;2024-02-21T09:50:39;22.50;;;9.90;;
3755;SDS011;1893;52.526;13.360;2024-02-21T09:53:08;21.07;;;10.33;;
3755;SDS011;1893;52.526;13.360;2024-02-21T09:55:37;17.93;;;8.80;;
3755;SDS011;1893;52.526;13.360;2024-02-21T09:58:05;16.27;;;10.10;;
3755;SDS011;1893;52.526;13.360;2024-02-21T10:00:32;14.60;;;9.77;;
3755;SDS011;1893;52.526;13.360;2024-02-21T10:02:58;18.53;;;10.13;;
3755;SDS011;1893;52.526;13.360;2024-02-21T10:05:24;26.80;;;9.43;;
3755;SDS011;1893;52.526;13.360;2024-02-21T10:07:52;18.23;;;9.53;;
3755;SDS011;1893;52.526;13.360;2024-02-21T10:10:20;15.80;;;9.30;;
3755;SDS011;1893;52.526;13.360;2024-02-21T10:12:52;20.50;;;10.40;;
3755;SDS011;1893;52.526;13.360;2024-02-21T10:15:23;19.13;;;9.07;;
3755;SDS011;1893;52.526;13.360;2024-02-21T10:17:59;18.20;;;9.93;;
3755;SDS011;1893;52.526;13.360;2024-02-21T10:20:25;18.93;;;9.40;;
3755;SDS011;1893;52.526;13.360;2024-02-21T10:23:04;16.47;;;8.43;;
3755;SDS011;1893;52.526;13.360;2024-02-21T10:25:34;14.37;;;9.30;;
3755;SDS011;1893;52.526;13.360;2024-02-21T10:28:01;17.90;;;10.00;;
3755;SDS011;1893;52.526;13.360;2024-02-21T10:30:28;18.40;;;8.90;;
3755;SDS011;1893;52.526;13.360;2024-02-21T10:32:53;12.63;;;9.00;;
3755;SDS011;1893;52.526;13.360;2024-02-21T10:35:26;20.87;;;10.03;;
3755;SDS011;1893;52.526;13.360;2024-02-21T10:37:55;15.97;;;8.03;;
3755;SDS011;1893;52.526;13.360;2024-02-21T10:40:25;20.23;;;10.60;;
3755;SDS011;1893;52.526;13.360;2024-02-21T10:42:56;15.73;;;8.43;;
3755;SDS011;1893;52.526;13.360;2024-02-21T10:45:30;15.30;;;8.57;;
3755;SDS011;1893;52.526;13.360;2024-02-21T10:50:39;14.93;;;8.40;;
3755;SDS011;1893;52.526;13.360;2024-02-21T10:53:26;17.47;;;8.60;;
3755;SDS011;1893;52.526;13.360;2024-02-21T10:56:28;14.03;;;7.70;;
3755;SDS011;1893;52.526;13.360;2024-02-21T10:58:58;13.07;;;8.43;;
3755;SDS011;1893;52.526;13.360;2024-02-21T11:01:26;16.20;;;8.90;;
3755;SDS011;1893;52.526;13.360;2024-02-21T11:03:54;21.00;;;8.87;;
3755;SDS011;1893;52.526;13.360;2024-02-21T11:06:22;11.87;;;8.23;;
3755;SDS011;1893;52.526;13.360;2024-02-21T11:08:58;14.83;;;8.60;;
3755;SDS011;1893;52.526;13.360;2024-02-21T11:11:27;17.83;;;8.93;;
3755;SDS011;1893;52.526;13.360;2024-02-21T11:14:03;11.60;;;8.60;;
3755;SDS011;1893;52.526;13.360;2024-02-21T11:17:01;13.50;;;7.70;;
3755;SDS011;1893;52.526;13.360;2024-02-21T11:19:28;12.07;;;7.70;;
3755;SDS011;1893;52.526;13.360;2024-02-21T11:21:56;10.20;;;8.20;;
3755;SDS011;1893;52.526;13.360;2024-02-21T11:24:32;16.10;;;7.70;;
3755;SDS011;1893;52.526;13.360;2024-02-21T11:27:14;15.23;;;8.13;;
3755;SDS011;1893;52.526;13.360;2024-02-21T11:30:14;13.10;;;6.90;;
3755;SDS011;1893;52.526;13.360;2024-02-21T11:32:36;16.37;;;7.20;;
3755;SDS011;1893;52.526;13.360;2024-02-21T11:35:03;13.37;;;8.00;;
3755;SDS011;1893;52.526;13.360;2024-02-21T11:37:33;12.47;;;7.40;;
3755;SDS011;1893;52.526;13.360;2024-02-21T11:40:03;11.00;;;5.60;;
3755;SDS011;1893;52.526;13.360;2024-02-21T11:42:31;11.40;;;6.10;;
3755;SDS011;1893;52.526;13.360;2024-02-21T11:44:57;14.13;;;6.10;;
3755;SDS011;1893;52.526;13.360;2024-02-21T11:47:23;8.93;;;6.53;;
3755;SDS011;1893;52.526;13.360;2024-02-21T11:49:49;8.70;;;6.57;;
3755;SDS011;1893;52.526;13.360;2024-02-21T11:52:18;11.50;;;5.80;;
3755;SDS011;1893;52.526;13.360;2024-02-21T11:54:47;11.03;;;6.57;;
3755;SDS011;1893;52.526;13.360;2024-02-21T11:57:13;11.17;;;6.13;;
3755;SDS011;1893;52.526;13.360;2024-02-21T11:59:42;9.33;;;6.30;;
3755;SDS011;1893;52.526;13.360;2024-02-21T12:02:09;8.30;;;5.30;;
3755;SDS011;1893;52.526;13.360;2024-02-21T12:04:35;14.50;;;6.17;;
3755;SDS011;1893;52.526;13.360;2024-02-21T12:07:01;8.40;;;5.47;;
3755;SDS011;1893;52.526;13.360;2024-02-21T12:09:29;9.90;;;6.33;;
3755;SDS011;1893;52.526;13.360;2024-02-21T12:11:58;9.57;;;6.07;;
3755;SDS011;1893;52.526;13.360;2024-02-21T12:14:25;8.90;;;6.57;;
3755;SDS011;1893;52.526;13.360;2024-02-21T12:16:53;7.53;;;5.10;;
3755;SDS011;1893;52.526;13.360;2024-02-21T12:19:19;7.37;;;5.53;;
3755;SDS011;1893;52.526;13.360;2024-02-21T12:21:47;8.00;;;5.37;;
3755;SDS011;1893;52.526;13.360;2024-02-21T12:24:21;10.07;;;5.57;;
3755;SDS011;1893;52.526;13.360;2024-02-21T12:26:48;12.13;;;6.40;;
3755;SDS011;1893;52.526;13.360;2024-02-21T12:29:14;5.10;;;4.60;;
3755;SDS011;1893;52.526;13.360;2024-02-21T12:31:40;8.00;;;4.87;;
3755;SDS011;1893;52.526;13.360;2024-02-21T12:34:06;9.70;;;5.50;;
3755;SDS011;1893;52.526;13.360;2024-02-21T12:36:32;7.43;;;4.60;;
3755;SDS011;1893;52.526;13.360;2024-02-21T12:38:58;7.43;;;5.20;;
3755;SDS011;1893;52.526;13.360;2024-02-21T12:41:25;8.40;;;5.30;;
3755;SDS011;1893;52.526;13.360;2024-02-21T12:43:52;10.93;;;3.90;;
3755;SDS011;1893;52.526;13.360;2024-02-21T12:46:18;7.17;;;5.20;;
3755;SDS011;1893;52.526;13.360;2024-02-21T12:48:44;6.00;;;4.53;;
3755;SDS011;1893;52.526;13.360;2024-02-21T12:51:09;9.93;;;4.83;;
3755;SDS011;1893;52.526;13.360;2024-02-21T12:53:35;6.43;;;4.20;;
3755;SDS011;1893;52.526;13.360;2024-02-21T12:56:01;7.37;;;5.23;;
3755;SDS011;1893;52.526;13.360;2024-02-21T12:58:26;5.33;;;4.00;;
3755;SDS011;1893;52.526;13.360;2024-02-21T13:03:21;8.30;;;4.13;;
3755;SDS011;1893;52.526;13.360;2024-02-21T13:05:47;6.30;;;4.57;;
3755;SDS011;1893;52.526;13.360;2024-02-21T13:08:13;8.40;;;4.80;;
3755;SDS011;1893;52.526;13.360;2024-02-21T13:10:39;8.10;;;4.27;;
3755;SDS011;1893;52.526;13.360;2024-02-21T13:13:04;9.90;;;5.37;;
3755;SDS011;1893;52.526;13.360;2024-02-21T13:15:30;6.00;;;3.83;;
3755;SDS011;1893;52.526;13.360;2024-02-21T13:17:56;13.97;;;4.57;;
3755;SDS011;1893;52.526;13.360;2024-02-21T13:20:25;7.27;;;4.70;;
3755;SDS011;1893;52.526;13.360;2024-02-21T13:22:51;6.83;;;4.30;;
3755;SDS011;1893;52.526;13.360;2024-02-21T13:25:17;6.97;;;4.10;;
3755;SDS011;1893;52.526;13.360;2024-02-21T13:27:45;14.07;;;6.50;;
3755;SDS011;1893;52.526;13.360;2024-02-21T13:30:11;5.97;;;4.13;;
3755;SDS011;1893;52.526;13.360;2024-02-21T13:32:38;6.40;;;3.60;;
3755;SDS011;1893;52.526;13.360;2024-02-21T13:35:04;9.10;;;4.33;;
3755;SDS011;1893;52.526;13.360;2024-02-21T13:37:30;11.30;;;4.73;;
3755;SDS011;1893;52.526;13.360;2024-02-21T13:39:56;9.77;;;4.67;;
3755;SDS011;1893;52.526;13.360;2024-02-21T13:42:22;5.83;;;3.70;;
3755;SDS011;1893;52.526;13.360;2024-02-21T13:44:48;5.87;;;3.83;;
3755;SDS011;1893;52.526;13.360;2024-02-21T13:47:14;5.50;;;4.10;;
3755;SDS011;1893;52.526;13.360;2024-02-21T13:49:40;6.07;;;5.00;;
3755;SDS011;1893;52.526;13.360;2024-02-21T13:52:06;8.90;;;4.50;;
3755;SDS011;1893;52.526;13.360;2024-02-21T13:54:32;8.47;;;4.87;;
3755;SDS011;1893;52.526;13.360;2024-02-21T13:56:57;8.00;;;3.70;;
3755;SDS011;1893;52.526;13.360;2024-02-21T13:59:23;7.80;;;4.10;;
3755;SDS011;1893;52.526;13.360;2024-02-21T14:01:51;7.20;;;3.90;;
3755;SDS011;1893;52.526;13.360;2024-02-21T14:04:16;6.63;;;4.67;;
3755;SDS011;1893;52.526;13.360;2024-02-21T14:06:42;7.53;;;3.97;;
3755;SDS011;1893;52.526;13.360;2024-02-21T14:09:11;10.23;;;4.07;;
3755;SDS011;1893;52.526;13.360;2024-02-21T14:11:37;11.17;;;4.40;;
3755;SDS011;1893;52.526;13.360;2024-02-21T14:14:03;6.60;;;4.07;;
3755;SDS011;1893;52.526;13.360;2024-02-21T14:16:29;12.17;;;4.10;;
3755;SDS011;1893;52.526;13.360;2024-02-21T14:18:55;14.27;;;4.90;;
3755;SDS011;1893;52.526;13.360;2024-02-21T14:21:21;6.40;;;3.73;;
3755;SDS011;1893;52.526;13.360;2024-02-21T14:23:47;11.70;;;4.30;;
3755;SDS011;1893;52.526;13.360;2024-02-21T14:26:12;10.13;;;3.70;;
3755;SDS011;1893;52.526;13.360;2024-02-21T14:28:39;7.13;;;3.90;;
3755;SDS011;1893;52.526;13.360;2024-02-21T14:31:06;6.53;;;3.20;;
3755;SDS011;1893;52.526;13.360;2024-02-21T14:33:34;4.70;;;3.03;;
3755;SDS011;1893;52.526;13.360;2024-02-21T14:36:00;5.23;;;3.50;;
3755;SDS011;1893;52.526;13.360;2024-02-21T14:38:27;7.00;;;3.10;;
3755;SDS011;1893;52.526;13.360;2024-02-21T14:40:53;4.40;;;2.97;;
3755;SDS011;1893;52.526;13.360;2024-02-21T14:43:19;4.77;;;3.47;;
3755;SDS011;1893;52.526;13.360;2024-02-21T14:45:46;5.17;;;2.70;;
3755;SDS011;1893;52.526;13.360;2024-02-21T14:48:12;6.47;;;3.10;;
3755;SDS011;1893;52.526;13.360;2024-02-21T14:50:38;4.67;;;3.50;;
3755;SDS011;1893;52.526;13.360;2024-02-21T14:53:04;4.60;;;2.83;;
3755;SDS011;1893;52.526;13.360;2024-02-21T14:55:29;7.17;;;3.20;;
3755;SDS011;1893;52.526;13.360;2024-02-21T14:57:55;6.00;;;3.63;;
3755;SDS011;1893;52.526;13.360;2024-02-21T15:00:21;7.50;;;3.33;;